createdAt,value
2023-04-16T00:02:31.837Z,9.82
2023-04-16T00:05:17.747Z,11.05
2023-04-16T00:08:03.400Z,11.85
2023-04-16T00:10:49.079Z,12.70
2023-04-16T00:13:34.599Z,26.63
2023-04-16T00:16:19.789Z,29.15
2023-04-16T00:19:05.119Z,26.52
2023-04-16T00:21:50.950Z,24.70
2023-04-16T00:24:36.993Z,24.77
2023-04-16T00:27:22.605Z,27.90
2023-04-16T00:30:08.360Z,20.95
2023-04-16T00:32:54.322Z,18.30
2023-04-16T00:35:40.720Z,20.42
2023-04-16T00:38:30.416Z,19.75
2023-04-16T00:41:17.070Z,24.67
2023-04-16T00:44:02.780Z,32.00
2023-04-16T00:46:48.333Z,29.35
2023-04-16T00:49:34.391Z,26.83
2023-04-16T00:52:20.029Z,24.13
2023-04-16T00:55:07.591Z,28.40
2023-04-16T01:00:38.766Z,20.50
2023-04-16T01:03:31.299Z,22.98
2023-04-16T01:06:17.924Z,23.30
2023-04-16T01:09:03.902Z,24.17
2023-04-16T01:11:49.381Z,30.00
2023-04-16T01:14:36.552Z,25.77
2023-04-16T01:17:22.394Z,22.17
2023-04-16T01:20:08.413Z,25.52
2023-04-16T01:22:54.344Z,25.42
2023-04-16T01:25:40.027Z,23.15
2023-04-16T01:28:25.799Z,25.13
2023-04-16T01:31:11.306Z,23.63
2023-04-16T01:34:06.885Z,24.75
2023-04-16T01:36:53.708Z,33.80
2023-04-16T01:39:40.033Z,39.35
2023-04-16T01:42:28.182Z,35.10
2023-04-16T01:45:13.788Z,33.60
2023-04-16T01:47:59.705Z,32.25
2023-04-16T01:50:44.897Z,32.22
2023-04-16T01:53:30.452Z,31.83
2023-04-16T01:56:16.159Z,32.95
2023-04-16T01:59:01.461Z,31.85
2023-04-16T02:01:52.922Z,34.15
2023-04-16T02:04:39.942Z,32.28
2023-04-16T02:07:25.929Z,32.83
2023-04-16T02:10:11.425Z,33.67
2023-04-16T02:12:58.362Z,33.85
2023-04-16T02:15:48.621Z,34.67
2023-04-16T02:18:38.043Z,33.58
2023-04-16T02:21:24.454Z,34.22
2023-04-16T02:24:09.714Z,33.78
2023-04-16T02:26:55.858Z,33.40
2023-04-16T02:29:41.645Z,36.42
2023-04-16T02:32:32.776Z,33.20
2023-04-16T02:35:18.863Z,37.53
2023-04-16T02:38:04.980Z,34.50
2023-04-16T02:40:51.190Z,32.13
2023-04-16T02:43:36.770Z,34.83
2023-04-16T02:46:23.467Z,26.70
2023-04-16T02:49:09.478Z,28.25
2023-04-16T02:51:55.095Z,24.73
2023-04-16T02:54:40.676Z,23.02
2023-04-16T02:57:26.033Z,25.98
2023-04-16T03:00:11.816Z,25.23
2023-04-16T03:02:58.854Z,24.88
2023-04-16T03:05:44.952Z,26.08
2023-04-16T03:08:30.560Z,23.27
2023-04-16T03:11:16.392Z,24.73
2023-04-16T03:14:01.575Z,26.75
2023-04-16T03:16:46.920Z,27.08
2023-04-16T03:19:32.861Z,24.70
2023-04-16T03:22:18.065Z,25.25
2023-04-16T03:25:03.824Z,26.45
2023-04-16T03:27:50.691Z,23.83
2023-04-16T03:30:36.217Z,23.52
2023-04-16T03:33:22.801Z,24.60
2023-04-16T03:36:10.156Z,24.58
2023-04-16T03:38:55.869Z,28.15
2023-04-16T03:41:42.940Z,27.02
2023-04-16T03:44:28.798Z,24.67
2023-04-16T03:47:14.125Z,27.92
2023-04-16T03:49:59.930Z,30.08
2023-04-16T03:52:47.006Z,26.90
2023-04-16T03:55:33.844Z,28.83
2023-04-16T03:58:19.440Z,33.38
2023-04-16T04:01:06.509Z,30.98
2023-04-16T04:03:52.522Z,30.98
2023-04-16T04:06:38.534Z,27.23
2023-04-16T04:09:23.855Z,27.40
2023-04-16T04:12:10.143Z,25.08
2023-04-16T04:14:57.321Z,26.20
2023-04-16T04:17:43.209Z,27.95
2023-04-16T04:20:28.751Z,26.75
2023-04-16T04:23:14.677Z,21.48
2023-04-16T04:26:03.815Z,19.02
2023-04-16T04:28:50.126Z,17.50
2023-04-16T04:31:37.058Z,19.20
2023-04-16T04:34:23.256Z,20.33
2023-04-16T04:37:08.988Z,21.23
2023-04-16T04:39:55.934Z,22.63
2023-04-16T04:42:42.484Z,22.15
2023-04-16T04:45:31.702Z,24.58
2023-04-16T04:48:17.775Z,26.27
2023-04-16T04:51:05.459Z,27.70
2023-04-16T04:56:38.131Z,20.80
2023-04-16T04:59:24.552Z,22.17
2023-04-16T05:02:11.060Z,22.50
2023-04-16T05:04:56.526Z,25.50
2023-04-16T05:07:42.149Z,25.20
2023-04-16T05:10:28.075Z,24.83
2023-04-16T05:13:13.621Z,22.25
2023-04-16T05:16:00.322Z,28.33
2023-04-16T05:18:46.394Z,40.97
2023-04-16T05:21:32.133Z,46.17
2023-04-16T05:24:17.718Z,41.50
2023-04-16T05:27:03.646Z,32.13
2023-04-16T05:29:49.117Z,27.23
2023-04-16T05:32:34.731Z,31.20
2023-04-16T05:35:21.284Z,35.17
2023-04-16T05:38:06.715Z,33.33
2023-04-16T05:40:52.546Z,32.42
2023-04-16T05:43:38.586Z,37.80
2023-04-16T05:46:24.043Z,63.22
2023-04-16T05:49:11.397Z,63.10
2023-04-16T05:51:57.665Z,38.22
2023-04-16T05:54:43.367Z,31.40
2023-04-16T05:57:29.135Z,31.75
2023-04-16T06:00:15.024Z,32.22
2023-04-16T06:03:01.707Z,34.90
2023-04-16T06:05:48.801Z,22.85
2023-04-16T06:08:34.217Z,23.02
2023-04-16T06:11:20.127Z,14.43
2023-04-16T06:14:05.706Z,13.25
2023-04-16T06:16:51.803Z,13.18
2023-04-16T06:19:37.331Z,11.55
2023-04-16T06:22:22.908Z,10.75
2023-04-16T06:25:09.152Z,10.77
2023-04-16T06:27:54.829Z,9.65
2023-04-16T06:30:41.400Z,9.82
2023-04-16T06:33:29.268Z,9.27
2023-04-16T06:36:16.973Z,9.57
2023-04-16T06:41:50.782Z,9.70
2023-04-16T06:44:37.032Z,9.02
2023-04-16T06:47:23.196Z,9.65
2023-04-16T06:50:09.128Z,8.82
2023-04-16T06:52:56.000Z,8.85
2023-04-16T06:55:41.583Z,10.25
2023-04-16T06:58:27.794Z,9.20
2023-04-16T07:01:13.589Z,8.60
2023-04-16T07:03:59.851Z,8.43
2023-04-16T07:06:46.203Z,8.90
2023-04-16T07:09:32.176Z,8.88
2023-04-16T07:12:17.892Z,8.45
2023-04-16T07:15:04.187Z,8.90
2023-04-16T07:17:50.177Z,9.55
2023-04-16T07:20:36.371Z,8.50
2023-04-16T07:23:22.117Z,7.68
2023-04-16T07:26:07.721Z,8.32
2023-04-16T07:28:53.167Z,7.88
2023-04-16T07:31:38.984Z,8.55
2023-04-16T07:34:24.239Z,8.50
2023-04-16T07:37:09.884Z,9.13
2023-04-16T07:39:57.785Z,8.63
2023-04-16T07:42:43.220Z,7.40
2023-04-16T07:45:29.000Z,7.63
2023-04-16T07:48:14.432Z,8.02
2023-04-16T07:51:00.382Z,8.52
2023-04-16T07:53:46.492Z,8.02
2023-04-16T07:56:31.867Z,7.85
2023-04-16T07:59:22.932Z,7.72
2023-04-16T08:02:13.621Z,7.97
2023-04-16T08:04:59.877Z,7.90
2023-04-16T08:07:45.593Z,7.18
2023-04-16T08:10:31.028Z,6.53
2023-04-16T08:13:16.392Z,7.13
2023-04-16T08:16:02.298Z,6.28
2023-04-16T08:18:47.981Z,6.75
2023-04-16T08:21:33.772Z,6.88
2023-04-16T08:24:19.030Z,6.78
2023-04-16T08:27:15.501Z,9.13
2023-04-16T08:32:50.818Z,6.68
2023-04-16T08:35:36.357Z,7.50
2023-04-16T08:38:21.949Z,6.75
2023-04-16T08:41:09.691Z,7.13
2023-04-16T08:46:41.502Z,6.20
2023-04-16T08:49:27.381Z,6.18
2023-04-16T08:52:20.339Z,7.10
2023-04-16T08:55:12.606Z,7.53
2023-04-16T08:57:58.528Z,7.10
2023-04-16T09:00:44.175Z,6.13
2023-04-16T09:03:33.928Z,6.90
2023-04-16T09:06:21.272Z,7.82
2023-04-16T09:09:06.951Z,7.18
2023-04-16T09:11:54.110Z,6.85
2023-04-16T09:14:41.927Z,7.20
2023-04-16T09:17:27.749Z,7.40
2023-04-16T09:20:13.277Z,6.25
2023-04-16T09:22:58.545Z,5.47
2023-04-16T09:25:44.060Z,6.30
2023-04-16T09:28:43.500Z,6.22
2023-04-16T09:31:28.915Z,6.55
2023-04-16T09:34:14.882Z,6.43
2023-04-16T09:37:18.967Z,6.40
2023-04-16T09:40:05.085Z,6.43
2023-04-16T09:42:52.124Z,6.57
2023-04-16T09:45:49.145Z,5.93
2023-04-16T09:48:34.769Z,5.40
2023-04-16T09:51:20.990Z,5.75
2023-04-16T09:54:08.029Z,6.47
2023-04-16T09:56:56.747Z,5.40
2023-04-16T09:59:44.601Z,5.53
2023-04-16T10:02:31.126Z,6.65
2023-04-16T10:05:20.195Z,6.90
2023-04-16T10:08:17.349Z,6.20
2023-04-16T10:11:03.604Z,6.47
2023-04-16T10:13:49.512Z,6.68
2023-04-16T10:16:35.466Z,5.95
2023-04-16T10:19:21.721Z,5.45
2023-04-16T10:22:07.131Z,3.90
2023-04-16T10:24:53.301Z,7.40
2023-04-16T10:27:39.389Z,12.80
2023-04-16T10:30:26.002Z,21.52
2023-04-16T10:33:12.162Z,34.40
2023-04-16T10:36:14.761Z,30.58
2023-04-16T10:39:00.866Z,53.90
2023-04-16T10:41:46.791Z,55.10
2023-04-16T10:44:32.743Z,51.03
2023-04-16T10:47:18.313Z,55.40
2023-04-16T10:50:15.952Z,55.92
2023-04-16T10:53:31.094Z,46.72
2023-04-16T10:56:23.139Z,29.63
2023-04-16T10:59:11.048Z,38.72
2023-04-16T11:04:45.656Z,19.52
2023-04-16T11:07:35.364Z,25.75
2023-04-16T11:10:20.851Z,22.80
2023-04-16T11:13:06.518Z,22.65
2023-04-16T11:15:52.277Z,17.00
2023-04-16T11:18:43.622Z,16.50
2023-04-16T11:21:37.429Z,16.48
2023-04-16T11:24:24.599Z,16.83
2023-04-16T11:27:13.252Z,17.60
2023-04-16T11:29:59.645Z,14.38
2023-04-16T11:32:45.753Z,13.32
2023-04-16T11:35:31.558Z,15.05
2023-04-16T11:38:18.446Z,13.50
2023-04-16T11:41:04.223Z,12.55
2023-04-16T11:43:50.613Z,12.05
2023-04-16T11:46:40.659Z,12.13
2023-04-16T11:49:30.704Z,8.88
2023-04-16T11:52:30.939Z,11.15
2023-04-16T11:55:22.983Z,11.15
2023-04-16T11:58:18.088Z,8.30
2023-04-16T12:01:05.145Z,9.13
2023-04-16T12:04:02.560Z,11.30
2023-04-16T12:07:11.586Z,9.55
2023-04-16T12:10:27.544Z,10.23
2023-04-16T12:13:17.687Z,10.18
2023-04-16T12:16:05.762Z,9.85
2023-04-16T12:19:08.759Z,9.35
2023-04-16T12:21:55.358Z,9.48
2023-04-16T12:24:41.384Z,10.30
2023-04-16T12:27:54.059Z,9.13
2023-04-16T12:30:50.612Z,9.40
2023-04-16T12:33:36.157Z,7.70
2023-04-16T12:36:22.068Z,9.40
2023-04-16T12:39:08.266Z,8.38
2023-04-16T12:41:53.737Z,8.55
2023-04-16T12:44:39.325Z,8.30
2023-04-16T12:47:25.165Z,8.68
2023-04-16T12:50:10.849Z,8.23
2023-04-16T12:52:57.320Z,8.18
2023-04-16T12:55:43.015Z,10.20
2023-04-16T12:58:28.681Z,8.32
2023-04-16T13:01:14.495Z,8.40
2023-04-16T13:04:00.669Z,8.40
2023-04-16T13:06:46.509Z,8.27
2023-04-16T13:09:31.795Z,8.90
2023-04-16T13:12:17.413Z,7.32
2023-04-16T13:15:03.040Z,7.72
2023-04-16T13:17:48.501Z,8.00
2023-04-16T13:20:34.442Z,7.95
2023-04-16T13:23:20.061Z,6.57
2023-04-16T13:26:05.910Z,8.30
2023-04-16T13:28:51.658Z,8.13
2023-04-16T13:31:37.436Z,8.15
2023-04-16T13:34:23.277Z,7.07
2023-04-16T13:37:08.748Z,7.00
2023-04-16T13:39:54.157Z,7.47
2023-04-16T13:42:39.551Z,6.68
2023-04-16T13:45:25.378Z,6.78
2023-04-16T13:48:11.273Z,7.28
2023-04-16T13:50:56.716Z,5.38
2023-04-16T13:53:42.604Z,6.57
2023-04-16T13:56:28.516Z,5.75
2023-04-16T13:59:15.782Z,6.45
2023-04-16T14:02:01.526Z,6.35
2023-04-16T14:04:47.564Z,6.00
2023-04-16T14:07:33.221Z,6.80
2023-04-16T14:10:18.770Z,6.10
2023-04-16T14:13:04.094Z,5.93
2023-04-16T14:15:49.795Z,6.15
2023-04-16T14:18:36.036Z,6.00
2023-04-16T14:21:21.775Z,6.15
2023-04-16T14:24:09.275Z,5.85
2023-04-16T14:29:41.479Z,5.88
2023-04-16T14:32:27.594Z,5.50
2023-04-16T14:35:13.052Z,5.78
2023-04-16T14:37:59.081Z,6.38
2023-04-16T14:40:44.810Z,6.40
2023-04-16T14:43:31.136Z,6.40
2023-04-16T14:46:19.749Z,5.90
2023-04-16T14:49:05.532Z,5.85
2023-04-16T14:51:52.386Z,6.38
2023-04-16T14:54:38.193Z,5.88
2023-04-16T14:57:23.476Z,5.53
2023-04-16T15:00:10.815Z,5.75
2023-04-16T15:02:56.767Z,5.22
2023-04-16T15:05:42.723Z,4.35
2023-04-16T15:08:28.752Z,5.28
2023-04-16T15:11:15.748Z,4.95
2023-04-16T15:14:01.492Z,4.32
2023-04-16T15:16:47.929Z,5.70
2023-04-16T15:19:33.575Z,5.65
2023-04-16T15:22:19.537Z,4.97
2023-04-16T15:25:06.387Z,5.43
2023-04-16T15:27:52.524Z,5.38
2023-04-16T15:30:40.383Z,4.47
2023-04-16T15:33:26.592Z,5.10
2023-04-16T15:36:12.183Z,6.07
2023-04-16T15:38:57.619Z,4.68
2023-04-16T15:41:57.582Z,4.43
2023-04-16T15:44:46.581Z,4.72
2023-04-16T15:47:32.087Z,5.20
2023-04-16T15:50:19.547Z,4.97
2023-04-16T15:53:05.057Z,4.72
2023-04-16T15:55:53.820Z,4.70
2023-04-16T15:58:39.889Z,4.95
2023-04-16T16:01:25.925Z,4.03
2023-04-16T16:04:11.910Z,4.97
2023-04-16T16:06:58.018Z,5.15
2023-04-16T16:09:43.777Z,5.10
2023-04-16T16:12:29.633Z,4.18
2023-04-16T16:15:15.304Z,4.57
2023-04-16T16:18:01.236Z,4.63
2023-04-16T16:20:46.924Z,4.65
2023-04-16T16:23:32.553Z,4.70
2023-04-16T16:26:18.366Z,4.43
2023-04-16T16:29:04.333Z,3.22
2023-04-16T16:31:50.008Z,4.40
2023-04-16T16:34:36.356Z,4.05
2023-04-16T16:37:22.108Z,4.45
2023-04-16T16:40:11.334Z,5.30
2023-04-16T16:42:56.999Z,4.40
2023-04-16T16:45:42.366Z,4.88
2023-04-16T16:48:27.990Z,4.82
2023-04-16T16:51:16.537Z,4.43
2023-04-16T16:54:02.040Z,4.80
2023-04-16T16:56:48.037Z,4.32
2023-04-16T16:59:33.583Z,5.10
2023-04-16T17:02:19.134Z,5.22
2023-04-16T17:05:06.195Z,5.47
2023-04-16T17:07:53.995Z,5.13
2023-04-16T17:10:39.439Z,4.38
2023-04-16T17:13:25.353Z,4.97
2023-04-16T17:16:11.926Z,5.57
2023-04-16T17:18:59.311Z,5.15
2023-04-16T17:21:44.855Z,4.63
2023-04-16T17:24:30.205Z,4.97
2023-04-16T17:27:16.146Z,5.40
2023-04-16T17:30:02.511Z,4.72
2023-04-16T17:32:49.523Z,4.63
2023-04-16T17:35:35.408Z,4.97
2023-04-16T17:38:20.910Z,5.60
2023-04-16T17:41:06.980Z,5.72
2023-04-16T17:43:52.502Z,6.03
2023-04-16T17:46:37.975Z,5.68
2023-04-16T17:49:24.329Z,6.82
2023-04-16T17:52:10.151Z,5.55
2023-04-16T17:55:00.485Z,5.82
2023-04-16T17:57:46.337Z,5.40
2023-04-16T18:00:31.944Z,6.00
2023-04-16T18:03:18.762Z,5.93
2023-04-16T18:06:06.047Z,6.65
2023-04-16T18:08:51.861Z,6.30
2023-04-16T18:11:37.614Z,6.20
2023-04-16T18:14:23.335Z,7.55
2023-04-16T18:17:08.717Z,7.25
2023-04-16T18:19:54.188Z,7.65
2023-04-16T18:22:39.865Z,7.45
2023-04-16T18:25:33.658Z,8.07
2023-04-16T18:28:21.315Z,7.35
2023-04-16T18:31:07.911Z,6.47
2023-04-16T18:33:58.091Z,6.25
2023-04-16T18:36:44.873Z,7.03
2023-04-16T18:39:33.605Z,7.03
2023-04-16T18:42:19.368Z,7.15
2023-04-16T18:45:06.507Z,7.20
2023-04-16T18:47:52.186Z,6.40
2023-04-16T18:50:37.632Z,7.70
2023-04-16T18:53:23.280Z,7.20
2023-04-16T18:56:08.764Z,7.10
2023-04-16T18:58:54.796Z,7.65
2023-04-16T19:01:40.520Z,8.20
2023-04-16T19:04:26.521Z,7.45
2023-04-16T19:07:12.367Z,8.30
2023-04-16T19:09:57.793Z,7.90
2023-04-16T19:12:43.209Z,7.95
2023-04-16T19:15:31.197Z,8.00
2023-04-16T19:18:18.393Z,8.32
2023-04-16T19:21:04.373Z,8.07
2023-04-16T19:23:50.558Z,8.65
2023-04-16T19:26:36.627Z,9.18
2023-04-16T19:29:22.287Z,8.95
2023-04-16T19:32:07.804Z,10.13
2023-04-16T19:34:53.691Z,9.20
2023-04-16T19:37:39.742Z,8.63
2023-04-16T19:40:25.964Z,7.70
2023-04-16T19:43:11.537Z,7.10
2023-04-16T19:45:56.986Z,9.65
2023-04-16T19:48:42.683Z,10.73
2023-04-16T19:51:28.745Z,7.13
2023-04-16T19:54:14.550Z,11.73
2023-04-16T19:57:00.024Z,11.95
2023-04-16T19:59:45.879Z,9.93
2023-04-16T20:02:31.486Z,11.55
2023-04-16T20:05:17.647Z,11.63
2023-04-16T20:08:04.362Z,10.38
2023-04-16T20:10:50.008Z,11.10
2023-04-16T20:13:37.709Z,12.82
2023-04-16T20:16:23.550Z,11.85
2023-04-16T20:19:10.454Z,11.30
2023-04-16T20:21:56.883Z,11.10
2023-04-16T20:24:47.858Z,11.57
2023-04-16T20:27:34.760Z,10.68
2023-04-16T20:30:22.491Z,10.50
2023-04-16T20:33:09.079Z,11.05
2023-04-16T20:35:56.113Z,9.82
2023-04-16T20:38:43.674Z,10.23
2023-04-16T20:41:30.269Z,10.75
2023-04-16T20:44:18.833Z,10.13
2023-04-16T20:47:05.090Z,10.63
2023-04-16T20:49:52.807Z,10.85
2023-04-16T20:52:38.864Z,10.50
2023-04-16T20:55:24.529Z,10.23
2023-04-16T20:58:10.375Z,10.10
2023-04-16T21:00:57.446Z,10.23
2023-04-16T21:03:43.583Z,9.55
2023-04-16T21:06:32.836Z,8.98
2023-04-16T21:09:18.312Z,8.50
2023-04-16T21:12:04.048Z,9.45
2023-04-16T21:14:49.987Z,8.82
2023-04-16T21:17:35.432Z,9.30
2023-04-16T21:20:21.766Z,9.98
2023-04-16T21:23:07.595Z,10.32
2023-04-16T21:25:55.511Z,9.52
2023-04-16T21:28:40.977Z,9.75
2023-04-16T21:31:26.835Z,9.35
2023-04-16T21:34:12.277Z,9.23
2023-04-16T21:36:57.853Z,8.80
2023-04-16T21:39:43.094Z,10.10
2023-04-16T21:42:28.482Z,9.65
2023-04-16T21:45:14.673Z,8.45
2023-04-16T21:48:00.205Z,8.43
2023-04-16T21:50:47.294Z,9.77
2023-04-16T21:53:33.059Z,10.70
2023-04-16T21:56:18.482Z,8.48
2023-04-16T21:59:04.008Z,9.07
2023-04-16T22:01:49.843Z,9.35
2023-04-16T22:04:39.040Z,9.55
2023-04-16T22:07:27.264Z,9.93
2023-04-16T22:10:15.016Z,10.43
2023-04-16T22:13:01.741Z,9.93
2023-04-16T22:15:47.181Z,10.02
2023-04-16T22:18:33.252Z,10.20
2023-04-16T22:21:19.298Z,9.60
2023-04-16T22:24:05.109Z,9.90
2023-04-16T22:26:50.612Z,10.15
2023-04-16T22:29:36.210Z,9.90
2023-04-16T22:32:21.657Z,12.60
2023-04-16T22:35:07.765Z,9.77
2023-04-16T22:37:53.588Z,10.07
2023-04-16T22:40:39.246Z,10.70
2023-04-16T22:43:24.550Z,10.65
2023-04-16T22:46:10.224Z,11.18
2023-04-16T22:48:55.440Z,11.52
2023-04-16T22:51:40.975Z,11.77
2023-04-16T22:54:30.375Z,13.98
2023-04-16T22:57:17.423Z,11.40
2023-04-16T23:00:06.398Z,14.45
2023-04-16T23:02:52.527Z,16.20
2023-04-16T23:05:38.061Z,12.80
2023-04-16T23:08:23.740Z,12.38
2023-04-16T23:11:09.089Z,11.68
2023-04-16T23:13:54.555Z,12.88
2023-04-16T23:16:40.102Z,15.30
2023-04-16T23:19:25.416Z,13.15
2023-04-16T23:22:10.829Z,13.55
2023-04-16T23:24:56.193Z,14.88
2023-04-16T23:27:41.838Z,13.13
2023-04-16T23:30:27.716Z,13.32
2023-04-16T23:33:12.908Z,12.57
2023-04-16T23:35:58.642Z,13.80
2023-04-16T23:38:44.225Z,10.25
2023-04-16T23:41:29.839Z,10.68
2023-04-16T23:44:16.682Z,12.55
2023-04-16T23:47:08.152Z,11.35
2023-04-16T23:49:57.663Z,12.05
2023-04-16T23:52:46.243Z,11.27
2023-04-16T23:55:31.749Z,11.77
2023-04-16T23:58:16.911Z,12.27
